sensor_id;sensor_type;location;lat;lon;timestamp;P1;durP1;ratioP1;P2;durP2;ratioP2
28068;SDS011;15382;47.578;8.086;2023-02-28T00:09:46;8.40;;;4.68;;
28068;SDS011;15382;47.578;8.086;2023-02-28T00:19:48;12.57;;;4.88;;
28068;SDS011;15382;47.578;8.086;2023-02-28T00:29:49;14.45;;;5.70;;
28068;SDS011;15382;47.578;8.086;2023-02-28T00:39:50;10.52;;;4.97;;
28068;SDS011;15382;47.578;8.086;2023-02-28T00:49:51;9.23;;;5.15;;
28068;SDS011;15382;47.578;8.086;2023-02-28T00:59:51;11.45;;;5.80;;
28068;SDS011;15382;47.578;8.086;2023-02-28T01:09:55;10.02;;;5.20;;
28068;SDS011;15382;47.578;8.086;2023-02-28T01:19:55;9.25;;;5.30;;
28068;SDS011;15382;47.578;8.086;2023-02-28T01:29:58;11.57;;;5.93;;
28068;SDS011;15382;47.578;8.086;2023-02-28T01:39:59;11.35;;;5.13;;
28068;SDS011;15382;47.578;8.086;2023-02-28T01:50:01;11.13;;;5.57;;
28068;SDS011;15382;47.578;8.086;2023-02-28T02:00:06;10.60;;;5.38;;
28068;SDS011;15382;47.578;8.086;2023-02-28T02:51:15;12.10;;;5.65;;
28068;SDS011;15382;47.578;8.086;2023-02-28T03:01:19;12.98;;;5.32;;
28068;SDS011;15382;47.578;8.086;2023-02-28T03:11:27;9.95;;;5.70;;
28068;SDS011;15382;47.578;8.086;2023-02-28T03:32:22;10.02;;;5.32;;
28068;SDS011;15382;47.578;8.086;2023-02-28T03:42:31;11.05;;;5.22;;
28068;SDS011;15382;47.578;8.086;2023-02-28T03:52:35;10.05;;;5.75;;
28068;SDS011;15382;47.578;8.086;2023-02-28T04:02:41;11.88;;;5.38;;
28068;SDS011;15382;47.578;8.086;2023-02-28T04:12:42;9.98;;;5.78;;
28068;SDS011;15382;47.578;8.086;2023-02-28T04:22:43;10.73;;;5.07;;
28068;SDS011;15382;47.578;8.086;2023-02-28T04:32:44;9.00;;;5.47;;
28068;SDS011;15382;47.578;8.086;2023-02-28T04:42:45;10.07;;;5.40;;
28068;SDS011;15382;47.578;8.086;2023-02-28T04:52:45;10.20;;;6.05;;
28068;SDS011;15382;47.578;8.086;2023-02-28T05:02:46;8.52;;;5.30;;
28068;SDS011;15382;47.578;8.086;2023-02-28T05:12:47;12.68;;;6.03;;
28068;SDS011;15382;47.578;8.086;2023-02-28T05:22:49;12.55;;;6.10;;
28068;SDS011;15382;47.578;8.086;2023-02-28T05:32:50;13.85;;;5.88;;
28068;SDS011;15382;47.578;8.086;2023-02-28T05:42:51;9.27;;;5.97;;
28068;SDS011;15382;47.578;8.086;2023-02-28T05:52:52;11.13;;;5.65;;
28068;SDS011;15382;47.578;8.086;2023-02-28T06:02:56;11.93;;;5.70;;
28068;SDS011;15382;47.578;8.086;2023-02-28T06:13:00;11.05;;;6.53;;
28068;SDS011;15382;47.578;8.086;2023-02-28T06:23:02;11.20;;;6.05;;
28068;SDS011;15382;47.578;8.086;2023-02-28T06:33:03;17.05;;;6.20;;
28068;SDS011;15382;47.578;8.086;2023-02-28T06:43:04;11.63;;;6.45;;
28068;SDS011;15382;47.578;8.086;2023-02-28T06:53:05;11.43;;;6.40;;
28068;SDS011;15382;47.578;8.086;2023-02-28T07:03:05;10.50;;;6.50;;
28068;SDS011;15382;47.578;8.086;2023-02-28T07:13:07;11.18;;;6.68;;
28068;SDS011;15382;47.578;8.086;2023-02-28T07:23:08;11.70;;;6.78;;
28068;SDS011;15382;47.578;8.086;2023-02-28T07:33:09;11.52;;;6.20;;
28068;SDS011;15382;47.578;8.086;2023-02-28T07:43:10;14.15;;;6.88;;
28068;SDS011;15382;47.578;8.086;2023-02-28T07:53:11;12.15;;;6.07;;
28068;SDS011;15382;47.578;8.086;2023-02-28T08:03:12;15.43;;;7.25;;
28068;SDS011;15382;47.578;8.086;2023-02-28T08:13:13;14.15;;;6.93;;
28068;SDS011;15382;47.578;8.086;2023-02-28T08:23:14;14.48;;;6.97;;
28068;SDS011;15382;47.578;8.086;2023-02-28T08:33:15;10.98;;;6.00;;
28068;SDS011;15382;47.578;8.086;2023-02-28T08:43:16;10.52;;;5.85;;
28068;SDS011;15382;47.578;8.086;2023-02-28T08:53:17;13.45;;;7.07;;
28068;SDS011;15382;47.578;8.086;2023-02-28T09:03:17;11.48;;;6.78;;
28068;SDS011;15382;47.578;8.086;2023-02-28T09:13:18;14.93;;;6.97;;
28068;SDS011;15382;47.578;8.086;2023-02-28T09:23:19;14.48;;;7.55;;
28068;SDS011;15382;47.578;8.086;2023-02-28T09:33:21;12.32;;;7.00;;
28068;SDS011;15382;47.578;8.086;2023-02-28T09:43:23;59.58;;;16.55;;
28068;SDS011;15382;47.578;8.086;2023-02-28T09:53:28;19.60;;;7.43;;
28068;SDS011;15382;47.578;8.086;2023-02-28T10:23:50;12.90;;;6.60;;
28068;SDS011;15382;47.578;8.086;2023-02-28T10:33:57;14.32;;;7.22;;
28068;SDS011;15382;47.578;8.086;2023-02-28T10:44:15;12.30;;;6.97;;
28068;SDS011;15382;47.578;8.086;2023-02-28T10:54:29;11.75;;;6.85;;
28068;SDS011;15382;47.578;8.086;2023-02-28T11:04:35;13.43;;;7.47;;
28068;SDS011;15382;47.578;8.086;2023-02-28T11:14:46;14.43;;;7.28;;
28068;SDS011;15382;47.578;8.086;2023-02-28T11:24:53;21.98;;;7.43;;
28068;SDS011;15382;47.578;8.086;2023-02-28T11:35:12;11.75;;;7.05;;
28068;SDS011;15382;47.578;8.086;2023-02-28T11:55:36;13.98;;;7.35;;
28068;SDS011;15382;47.578;8.086;2023-02-28T12:16:33;12.63;;;6.88;;
28068;SDS011;15382;47.578;8.086;2023-02-28T12:26:46;19.45;;;10.60;;
28068;SDS011;15382;47.578;8.086;2023-02-28T12:36:48;54.70;;;17.73;;
28068;SDS011;15382;47.578;8.086;2023-02-28T12:46:53;87.57;;;25.30;;
28068;SDS011;15382;47.578;8.086;2023-02-28T12:57:17;35.40;;;13.13;;
28068;SDS011;15382;47.578;8.086;2023-02-28T13:17:29;22.25;;;9.13;;
28068;SDS011;15382;47.578;8.086;2023-02-28T13:27:41;33.47;;;11.98;;
28068;SDS011;15382;47.578;8.086;2023-02-28T13:37:43;18.38;;;9.52;;
28068;SDS011;15382;47.578;8.086;2023-02-28T13:47:58;18.15;;;9.27;;
28068;SDS011;15382;47.578;8.086;2023-02-28T13:58:08;16.17;;;8.30;;
28068;SDS011;15382;47.578;8.086;2023-02-28T14:08:18;15.48;;;9.13;;
28068;SDS011;15382;47.578;8.086;2023-02-28T14:18:27;19.05;;;10.35;;
28068;SDS011;15382;47.578;8.086;2023-02-28T14:39:14;18.13;;;8.27;;
28068;SDS011;15382;47.578;8.086;2023-02-28T14:49:19;18.33;;;9.83;;
28068;SDS011;15382;47.578;8.086;2023-02-28T14:59:27;20.77;;;9.35;;
28068;SDS011;15382;47.578;8.086;2023-02-28T15:09:30;39.00;;;14.68;;
28068;SDS011;15382;47.578;8.086;2023-02-28T15:19:32;22.95;;;12.20;;
28068;SDS011;15382;47.578;8.086;2023-02-28T15:29:46;25.60;;;13.27;;
28068;SDS011;15382;47.578;8.086;2023-02-28T15:39:54;19.48;;;9.82;;
28068;SDS011;15382;47.578;8.086;2023-02-28T15:50:05;25.63;;;11.63;;
28068;SDS011;15382;47.578;8.086;2023-02-28T16:00:13;23.90;;;11.10;;
28068;SDS011;15382;47.578;8.086;2023-02-28T16:10:16;22.50;;;10.32;;
28068;SDS011;15382;47.578;8.086;2023-02-28T16:20:18;23.73;;;11.32;;
28068;SDS011;15382;47.578;8.086;2023-02-28T16:30:23;18.58;;;10.50;;
28068;SDS011;15382;47.578;8.086;2023-02-28T16:40:25;20.50;;;10.93;;
28068;SDS011;15382;47.578;8.086;2023-02-28T16:50:29;22.52;;;10.95;;
28068;SDS011;15382;47.578;8.086;2023-02-28T17:00:32;22.63;;;10.52;;
28068;SDS011;15382;47.578;8.086;2023-02-28T17:10:33;25.55;;;13.35;;
28068;SDS011;15382;47.578;8.086;2023-02-28T17:20:34;23.75;;;12.40;;
28068;SDS011;15382;47.578;8.086;2023-02-28T17:30:35;27.48;;;14.55;;
28068;SDS011;15382;47.578;8.086;2023-02-28T17:40:35;23.42;;;11.13;;
28068;SDS011;15382;47.578;8.086;2023-02-28T17:50:36;98.38;;;36.47;;
28068;SDS011;15382;47.578;8.086;2023-02-28T18:00:37;34.30;;;16.35;;
28068;SDS011;15382;47.578;8.086;2023-02-28T18:10:38;46.08;;;17.38;;
28068;SDS011;15382;47.578;8.086;2023-02-28T18:20:39;46.20;;;20.80;;
28068;SDS011;15382;47.578;8.086;2023-02-28T18:30:39;45.60;;;18.63;;
28068;SDS011;15382;47.578;8.086;2023-02-28T18:40:40;45.42;;;18.52;;
28068;SDS011;15382;47.578;8.086;2023-02-28T18:50:41;116.38;;;40.10;;
28068;SDS011;15382;47.578;8.086;2023-02-28T19:00:42;39.95;;;17.05;;
28068;SDS011;15382;47.578;8.086;2023-02-28T19:10:43;31.58;;;15.60;;
28068;SDS011;15382;47.578;8.086;2023-02-28T19:20:44;28.77;;;13.20;;
28068;SDS011;15382;47.578;8.086;2023-02-28T19:30:46;31.35;;;15.10;;
28068;SDS011;15382;47.578;8.086;2023-02-28T19:40:48;28.25;;;13.55;;
28068;SDS011;15382;47.578;8.086;2023-02-28T19:50:49;29.48;;;13.68;;
28068;SDS011;15382;47.578;8.086;2023-02-28T20:00:55;26.05;;;13.07;;
28068;SDS011;15382;47.578;8.086;2023-02-28T20:11:00;31.15;;;14.23;;
28068;SDS011;15382;47.578;8.086;2023-02-28T20:21:08;26.27;;;13.43;;
28068;SDS011;15382;47.578;8.086;2023-02-28T20:31:14;33.47;;;15.48;;
28068;SDS011;15382;47.578;8.086;2023-02-28T20:41:17;28.60;;;15.00;;
28068;SDS011;15382;47.578;8.086;2023-02-28T20:51:18;37.45;;;15.48;;
28068;SDS011;15382;47.578;8.086;2023-02-28T21:01:24;33.53;;;15.48;;
28068;SDS011;15382;47.578;8.086;2023-02-28T21:11:27;33.78;;;15.68;;
28068;SDS011;15382;47.578;8.086;2023-02-28T21:21:30;32.00;;;15.23;;
28068;SDS011;15382;47.578;8.086;2023-02-28T21:31:34;34.00;;;15.52;;
28068;SDS011;15382;47.578;8.086;2023-02-28T21:41:35;39.53;;;15.95;;
28068;SDS011;15382;47.578;8.086;2023-02-28T21:51:36;38.25;;;16.83;;
28068;SDS011;15382;47.578;8.086;2023-02-28T22:01:38;36.10;;;15.18;;
28068;SDS011;15382;47.578;8.086;2023-02-28T22:11:40;37.38;;;16.67;;
28068;SDS011;15382;47.578;8.086;2023-02-28T22:21:41;35.38;;;16.42;;
28068;SDS011;15382;47.578;8.086;2023-02-28T22:31:42;33.10;;;14.63;;
28068;SDS011;15382;47.578;8.086;2023-02-28T22:41:42;34.47;;;16.58;;
28068;SDS011;15382;47.578;8.086;2023-02-28T22:51:43;34.75;;;16.77;;
28068;SDS011;15382;47.578;8.086;2023-02-28T23:01:44;41.40;;;18.25;;
28068;SDS011;15382;47.578;8.086;2023-02-28T23:11:46;36.50;;;17.98;;
28068;SDS011;15382;47.578;8.086;2023-02-28T23:21:48;33.30;;;16.30;;
28068;SDS011;15382;47.578;8.086;2023-02-28T23:31:50;38.05;;;17.15;;
28068;SDS011;15382;47.578;8.086;2023-02-28T23:41:51;39.50;;;17.27;;
28068;SDS011;15382;47.578;8.086;2023-02-28T23:51:52;34.50;;;16.20;;
